KFMH/FMH METAR and TAF weather

Enter ICAO airport designator
Station Type Date Time Source
KFMH METAR 2020/01/20 12:50 UTC NOAA

KFMH 201250Z 34010G17KT 10SM BKN027 M08/M15 A3008


Station Type Date Time Source
KFMH Decoded METAR 2020/01/20 12:50 UTC NOAA

Otis Air National Guard Base, MA, United States (KFMH) 41-39N 070-31W
Jan 20, 2020 - 07:50 AM EST / 2020.01.20 1250 UTC
Wind: from the NNW (340 degrees) at 12 MPH (10 KT) gusting to 20 MPH (17 KT):0
Visibility: 10 mile(s):0
Sky conditions: mostly cloudy
Temperature: 17 F (-8 C)
Windchill: 3 F (-16 C):1
Dew Point: 5 F (-15 C)
Relative Humidity: 57%
Pressure (altimeter): 30.08 in. Hg (1018 hPa)
ob: KFMH 201250Z 34010G17KT 10SM BKN027 M08/M15 A3008
cycle: 13

Station Type Date Time Source
KFMH TAF 2020/01/20 12:30 UTC NOAA

TAF KFMH 201129Z 2012/2112 33011G21KT P6SM BKN025
FM201400 33011G21KT P6SM SCT025
FM202200 33007KT P6SM SKC
FM210900 33010G17KT P6SM SKC
FM211100 34009KT P6SM SKC

Example: see airport list